LFOB/BVA METAR and TAF weather

Enter ICAO airport designator
Station Type Date Time Source
LFOB METAR 2019/06/18 17:00 UTC NOAA

LFOB 181700Z AUTO 12007KT 100V160 CAVOK 25/17 Q1010 NOSIG


Station Type Date Time Source
LFOB Decoded METAR 2019/06/18 17:00 UTC NOAA

Beauvais, France (LFOB) 49-28N 002-07E 111M
Jun 18, 2019 - 01:00 PM EDT / 2019.06.18 1700 UTC
Wind: from the ESE (120 degrees) at 8 MPH (7 KT) (direction variable):0
Visibility: greater than 7 mile(s):0
Temperature: 77 F (25 C)
Dew Point: 62 F (17 C)
Relative Humidity: 61%
Pressure (altimeter): 29.83 in. Hg (1010 hPa)
ob: LFOB 181700Z AUTO 12007KT 100V160 CAVOK 25/17 Q1010 NOSIG
cycle: 17

Station Type Date Time Source
LFOB TAF 2019/06/18 12:57 UTC NOAA

TAF LFOB 181100Z 1812/1912 09007KT CAVOK PROB30
TEMPO 1823/1902 VRB15G25KT 2000 TSRAGR BKN080CB

Example: see airport list